Strona główna
METAR-TAF:

METAR-TAF

Lotnisko :

Port lotniczy Bordeaux-Mérignac

Bordeaux, Francja

Szerokość geograficzna: 44-50N, Długość geograficzna: 000-42W, wysokość: 49 m

Aktualna obserwacja pogody

Raport powstał 22 minut temu, godzina 05:30 UTC
Wiatr 4 kt od wschód
Temperatura 18°C
Wilgotność 59%
Ciśnienie 1025 hPa
Widzialność 10 km lub więcej
Brak chmur poniżej 1500 m i brak chmur cumulonimbus

METAR: LFBD 280530Z AUTO 08004KT CAVOK 18/10 Q1025 NOSIG

czas: 07:52 (05:52 UTC)

Prognoza

Raport powstał 52 minut temu, godzina 05:00 UTC
Prognoza ważna od 28 godzina 06 UTC do 29 godzina 12 UTC
Wiatr 8 kt od wschodnio-północny wschód
Widzialność 10 km lub więcej
Brak chmur poniżej 1500 m i brak chmur cumulonimbus

TAF: LFBD 280500Z 2806/2912 06008KT CAVOK TX31/2815Z TN16/2806Z

Obserwacja i prognoza pogody dla ponad 4000 lotnisk (raport METAR i TAF).

Dostępne stacje oznaczono żółtymi i czerwonymi punktami na mapie.

Najedź kursorem aby zobaczyć nazwę stacji.

Kliknij aby zobaczyć obserwacje i prognozy pogody.

Aby zmienić mapę: kliknij na zielony przycisk z czarnym krzyżykiem, aby powiększyć; na zielony przycisk z myślnikiem, aby pomniejszyć; na zielone strzałki, aby przejść do map sąsiednich.


METAR-TAF: